Aérodrome :
LOGIN :

S'inscrire | Disclaimer

   EN    FR    IT 

 










Légende :    VFR   VFR Marginal   IFR   IFR Intensif   IFR Très Intensif
Visi : 
Plafond : 
>= 8 km
>= 3000ft
5 à 8 km
1000 à 3000 ft
1500m à 5 km
500 à 1000 ft
800 à 1500m
200 à 500 ft
< 800m
< 200 ft
Symboles :   Orages  Brouillard  Fortes neiges  Fortes précipitations  Vent > 20 kt
SIGMETs :   Divers  Orages  Givrage  Turbulence  Onde Orograph.  Cendres Volcan.






- Altitude de l'aérodrome : 9 ft
- Code IATA : MIR


DTMB - Habib Bourguliba Int. Monastir

DERNIER METAR :
  • 251000Z 33006KT 8000 NSC 22/13 Q1021

METARs EXPIRÉS :
  • 250930Z 33006KT 300V360 8000 FEW033 23/13 Q1022
  • 250900Z 32006KT 290V350 8000 FEW033 22/14 Q1022
  • 250830Z 33007KT 8000 FEW033 22/14 Q1022
  • 250800Z 32008KT 8000 FEW040 21/14 Q1022
  • 250730Z 32007KT 8000 FEW040 21/13 Q1022

TAF TAF DTMB
Valide du 25 à 06h jusqu'au 26 à 06h UTC


250500Z 2506/2606 31010KT 9999 FEW023
PROB30
TEMPO 2510/2518 -SHRA FEW023CB
BECMG 2514/2516 23012KT



MET'MAP, la Météo Aéronautique d'un coup d'oeil ! - Copyright ORBIFLY Décembre 2007 - Disclaimer

ORBIFLY MET'MAP TEAM :

Programmation & Développement : Alexandra Zaïnal
Sur une idée originale de : Baudouin d'Aumeries
Assistance à la programmation : Marc-Olivier Méhu
Soutien technique & logistique : Manuel Goepfert

Contact : metmap@orbifly.com




SOURCES & CREDITS :

   NOAA